createdAt,value
2023-02-04T00:00:38.926Z,18.07
2023-02-04T00:03:07.260Z,18.23
2023-02-04T00:05:36.790Z,7.93
2023-02-04T00:08:04.997Z,5.77
2023-02-04T00:10:33.468Z,3.80
2023-02-04T00:13:01.718Z,8.73
2023-02-04T00:15:29.632Z,23.30
2023-02-04T00:17:57.637Z,13.30
2023-02-04T00:20:25.637Z,33.07
2023-02-04T00:22:55.094Z,14.77
2023-02-04T00:25:23.042Z,5.37
2023-02-04T00:27:50.925Z,9.13
2023-02-04T00:30:19.093Z,9.87
2023-02-04T00:32:47.055Z,7.53
2023-02-04T00:35:15.439Z,6.03
2023-02-04T00:37:43.322Z,3.47
2023-02-04T00:40:14.050Z,3.40
2023-02-04T00:42:42.060Z,3.90
2023-02-04T00:45:11.600Z,3.07
2023-02-04T00:47:40.247Z,3.33
2023-02-04T00:50:08.871Z,9.33
2023-02-04T00:52:36.768Z,7.77
2023-02-04T00:55:04.905Z,6.10
2023-02-04T00:57:34.321Z,4.40
2023-02-04T01:00:02.273Z,3.93
2023-02-04T01:02:30.105Z,3.73
2023-02-04T01:04:58.562Z,4.23
2023-02-04T01:07:26.686Z,1.93
2023-02-04T01:09:54.737Z,3.37
2023-02-04T01:12:22.992Z,2.30
2023-02-04T01:14:52.431Z,5.10
2023-02-04T01:17:21.240Z,7.83
2023-02-04T01:19:49.629Z,7.83
2023-02-04T01:22:17.614Z,4.23
2023-02-04T01:24:45.569Z,2.10
2023-02-04T01:27:31.915Z,4.27
2023-02-04T01:30:01.207Z,2.03
2023-02-04T01:32:29.163Z,3.67
2023-02-04T01:34:57.331Z,2.50
2023-02-04T01:37:25.338Z,2.37
2023-02-04T01:39:53.333Z,3.30
2023-02-04T01:42:21.609Z,2.60
2023-02-04T01:44:49.858Z,2.83
2023-02-04T01:47:19.426Z,3.57
2023-02-04T01:49:52.386Z,2.50
2023-02-04T01:52:20.729Z,3.60
2023-02-04T01:54:48.801Z,3.07
2023-02-04T01:57:18.556Z,4.57
2023-02-04T01:59:48.330Z,2.70
2023-02-04T02:02:43.046Z,3.83
2023-02-04T02:05:12.522Z,2.13
2023-02-04T02:07:40.582Z,3.80
2023-02-04T02:10:11.465Z,5.93
2023-02-04T02:12:39.917Z,2.77
2023-02-04T02:15:11.157Z,7.80
2023-02-04T02:17:39.305Z,6.37
2023-02-04T02:20:10.759Z,6.73
2023-02-04T02:22:46.611Z,2.87
2023-02-04T02:25:16.779Z,1.57
2023-02-04T02:27:44.918Z,5.10
2023-02-04T02:30:17.615Z,3.50
2023-02-04T02:32:47.211Z,7.27
2023-02-04T02:35:16.569Z,3.60
2023-02-04T02:37:44.641Z,4.47
2023-02-04T02:40:16.140Z,1.67
2023-02-04T02:42:45.001Z,2.27
2023-02-04T02:45:19.446Z,3.97
2023-02-04T02:47:47.365Z,2.83
2023-02-04T02:50:20.782Z,1.30
2023-02-04T02:52:48.798Z,3.33
2023-02-04T02:55:21.508Z,3.57
2023-02-04T02:57:50.591Z,1.90
2023-02-04T03:00:22.005Z,1.73
2023-02-04T03:02:56.541Z,2.33
2023-02-04T03:05:25.943Z,2.30
2023-02-04T03:07:54.048Z,5.27
2023-02-04T03:10:23.445Z,0.80
2023-02-04T03:12:52.147Z,3.83
2023-02-04T03:15:21.300Z,6.90
2023-02-04T03:17:51.445Z,2.13
2023-02-04T03:20:19.973Z,1.33
2023-02-04T03:22:47.879Z,3.67
2023-02-04T03:25:16.257Z,4.30
2023-02-04T03:27:45.661Z,2.03
2023-02-04T03:30:13.678Z,2.23
2023-02-04T03:32:41.892Z,2.57
2023-02-04T03:35:10.183Z,5.40
2023-02-04T03:37:38.169Z,2.30
2023-02-04T03:40:06.944Z,5.03
2023-02-04T03:42:34.898Z,8.67
2023-02-04T03:45:04.304Z,4.17
2023-02-04T03:47:32.163Z,9.37
2023-02-04T03:50:00.170Z,6.47
2023-02-04T03:52:28.020Z,6.67
2023-02-04T03:54:55.981Z,6.10
2023-02-04T03:57:23.935Z,6.77
2023-02-04T03:59:51.816Z,12.10
2023-02-04T04:02:21.132Z,5.60
2023-02-04T04:04:49.035Z,7.77
2023-02-04T04:07:17.018Z,10.63
2023-02-04T04:09:45.017Z,8.13
2023-02-04T04:12:12.903Z,7.53
2023-02-04T04:14:40.821Z,7.50
2023-02-04T04:17:08.700Z,7.43
2023-02-04T04:19:37.934Z,6.17
2023-02-04T04:22:06.225Z,6.57
2023-02-04T04:24:34.088Z,6.27
2023-02-04T04:27:01.929Z,7.03
2023-02-04T04:29:29.852Z,10.17
2023-02-04T04:31:57.749Z,12.70
2023-02-04T04:34:25.735Z,6.47
2023-02-04T04:36:55.021Z,11.87
2023-02-04T04:39:23.087Z,10.47
2023-02-04T04:41:50.993Z,7.73
2023-02-04T04:44:18.908Z,6.13
2023-02-04T04:46:46.880Z,4.60
2023-02-04T04:49:14.780Z,7.30
2023-02-04T04:51:42.790Z,7.83
2023-02-04T04:54:12.047Z,8.80
2023-02-04T04:56:39.925Z,5.07
2023-02-04T04:59:07.789Z,7.73
2023-02-04T05:01:35.697Z,6.00
2023-02-04T05:04:04.212Z,6.67
2023-02-04T05:06:32.104Z,7.93
2023-02-04T05:09:00.025Z,3.80
2023-02-04T05:11:29.317Z,5.33
2023-02-04T05:13:57.254Z,5.03
2023-02-04T05:16:25.127Z,4.93
2023-02-04T05:18:53.036Z,9.20
2023-02-04T05:21:20.944Z,8.40
2023-02-04T05:23:48.863Z,6.63
2023-02-04T05:26:29.121Z,5.00
2023-02-04T05:29:00.400Z,4.57
2023-02-04T05:31:28.591Z,4.17
2023-02-04T05:33:56.605Z,8.13
2023-02-04T05:36:24.562Z,3.43
2023-02-04T05:38:52.455Z,4.57
2023-02-04T05:41:20.307Z,8.67
2023-02-04T05:43:48.173Z,7.97
2023-02-04T05:46:17.382Z,5.53
2023-02-04T05:48:45.276Z,3.17
2023-02-04T05:51:13.176Z,10.37
2023-02-04T05:53:41.032Z,5.97
2023-02-04T05:56:09.068Z,8.13
2023-02-04T05:58:38.258Z,5.57
2023-02-04T06:01:07.656Z,5.40
2023-02-04T06:03:37.060Z,7.87
2023-02-04T06:06:05.184Z,6.30
2023-02-04T06:08:33.039Z,11.37
2023-02-04T06:11:00.934Z,7.13
2023-02-04T06:13:28.814Z,6.53
2023-02-04T06:15:56.821Z,6.47
2023-02-04T06:18:24.675Z,7.37
2023-02-04T06:20:53.943Z,10.67
2023-02-04T06:23:21.806Z,8.97
2023-02-04T06:25:50.438Z,9.77
2023-02-04T06:28:18.392Z,6.87
2023-02-04T06:30:46.415Z,9.30
2023-02-04T06:33:14.427Z,7.83
2023-02-04T06:35:42.586Z,15.97
2023-02-04T06:38:11.863Z,8.00
2023-02-04T06:40:39.801Z,9.80
2023-02-04T06:43:07.778Z,11.30
2023-02-04T06:45:35.888Z,10.57
2023-02-04T06:48:03.767Z,23.77
2023-02-04T06:50:31.900Z,10.20
2023-02-04T06:53:00.014Z,17.50
2023-02-04T06:55:29.270Z,12.60
2023-02-04T06:57:57.110Z,13.40
2023-02-04T07:00:25.132Z,12.20
2023-02-04T07:02:53.144Z,11.57
2023-02-04T07:05:21.501Z,18.10
2023-02-04T07:07:49.408Z,18.73
2023-02-04T07:10:17.843Z,12.27
2023-02-04T07:12:47.215Z,18.73
2023-02-04T07:15:15.326Z,16.40
2023-02-04T07:17:43.253Z,15.53
2023-02-04T07:20:12.505Z,17.67
2023-02-04T07:22:41.178Z,15.23
2023-02-04T07:25:10.156Z,15.30
2023-02-04T07:27:38.225Z,18.43
2023-02-04T07:30:08.533Z,17.27
2023-02-04T07:32:36.380Z,18.93
2023-02-04T07:35:04.381Z,16.63
2023-02-04T07:37:32.276Z,20.37
2023-02-04T07:40:00.185Z,23.33
2023-02-04T07:42:28.105Z,16.33
2023-02-04T07:45:05.504Z,21.07
2023-02-04T07:47:34.765Z,16.37
2023-02-04T07:50:02.660Z,15.00
2023-02-04T07:52:30.572Z,16.67
2023-02-04T07:54:58.406Z,28.67
2023-02-04T07:57:26.283Z,21.83
2023-02-04T07:59:54.196Z,18.70
2023-02-04T08:02:22.593Z,18.10
2023-02-04T08:04:52.076Z,21.53
2023-02-04T08:07:20.074Z,17.33
2023-02-04T08:09:48.016Z,16.83
2023-02-04T08:12:16.351Z,18.57
2023-02-04T08:14:44.240Z,14.77
2023-02-04T08:17:12.064Z,19.20
2023-02-04T08:19:39.977Z,22.33
2023-02-04T08:22:09.161Z,24.83
2023-02-04T08:24:36.983Z,16.80
2023-02-04T08:27:05.050Z,25.53
2023-02-04T08:29:32.925Z,25.03
2023-02-04T08:32:00.866Z,18.70
2023-02-04T08:34:29.063Z,17.27
2023-02-04T08:36:56.941Z,12.67
2023-02-04T08:39:26.182Z,22.17
2023-02-04T08:41:54.121Z,15.50
2023-02-04T08:44:22.067Z,14.73
2023-02-04T08:46:50.177Z,22.30
2023-02-04T08:49:18.204Z,23.13
2023-02-04T08:51:46.109Z,27.87
2023-02-04T08:54:14.012Z,33.30
2023-02-04T08:56:43.224Z,22.87
2023-02-04T08:59:11.117Z,22.70
2023-02-04T09:01:39.057Z,18.30
2023-02-04T09:04:07.607Z,17.90
2023-02-04T09:06:35.568Z,29.57
2023-02-04T09:09:03.448Z,18.17
2023-02-04T09:11:31.371Z,21.80
2023-02-04T09:14:00.612Z,18.50
2023-02-04T09:16:28.464Z,23.07
2023-02-04T09:18:56.375Z,14.33
2023-02-04T09:21:24.286Z,21.10
2023-02-04T09:23:52.686Z,23.30
2023-02-04T09:26:20.665Z,17.27
2023-02-04T09:28:48.687Z,18.13
2023-02-04T09:31:18.874Z,19.43
2023-02-04T09:33:46.842Z,22.57
2023-02-04T09:36:14.744Z,18.23
2023-02-04T09:38:42.645Z,17.73
2023-02-04T09:41:13.757Z,15.93
2023-02-04T09:43:44.335Z,19.50
2023-02-04T09:46:21.962Z,17.20
2023-02-04T09:48:50.499Z,13.63
2023-02-04T09:51:20.654Z,15.37
2023-02-04T09:53:49.967Z,19.47
2023-02-04T09:56:19.302Z,18.37
2023-02-04T09:58:47.336Z,16.47
2023-02-04T10:01:17.265Z,12.63
2023-02-04T10:03:48.373Z,13.60
2023-02-04T10:06:18.280Z,14.17
2023-02-04T10:08:47.743Z,18.03
2023-02-04T10:11:17.424Z,10.63
2023-02-04T10:13:50.178Z,27.70
2023-02-04T10:16:21.466Z,14.87
2023-02-04T10:18:51.297Z,12.37
2023-02-04T10:21:22.172Z,20.23
2023-02-04T10:23:52.642Z,8.40
2023-02-04T10:26:22.457Z,11.70
2023-02-04T10:28:50.556Z,17.10
2023-02-04T10:31:34.290Z,11.53
2023-02-04T10:34:13.367Z,20.53
2023-02-04T10:36:42.845Z,12.40
2023-02-04T10:39:14.544Z,13.10
2023-02-04T10:41:49.608Z,11.90
2023-02-04T10:44:19.882Z,12.53
2023-02-04T10:46:48.316Z,13.07
2023-02-04T10:49:23.437Z,11.67
2023-02-04T10:51:53.474Z,13.73
2023-02-04T10:54:33.880Z,11.10
2023-02-04T10:57:10.326Z,13.93
2023-02-04T10:59:38.651Z,17.77
2023-02-04T11:02:30.672Z,13.47
2023-02-04T11:05:00.117Z,14.17
2023-02-04T11:07:29.102Z,10.57
2023-02-04T11:09:57.169Z,10.47
2023-02-04T11:12:39.137Z,12.27
2023-02-04T11:15:08.522Z,14.00
2023-02-04T11:17:36.638Z,14.87
2023-02-04T11:20:17.947Z,13.53
2023-02-04T11:22:49.404Z,10.83
2023-02-04T11:25:33.598Z,17.37
2023-02-04T11:28:02.033Z,11.03
2023-02-04T11:30:34.470Z,10.50
2023-02-04T11:33:05.257Z,8.43
2023-02-04T11:35:34.822Z,22.80
2023-02-04T11:38:02.852Z,17.43
2023-02-04T11:40:33.263Z,9.70
2023-02-04T11:43:03.887Z,14.90
2023-02-04T11:45:34.995Z,13.60
2023-02-04T11:48:05.413Z,16.40
2023-02-04T11:50:38.431Z,8.97
2023-02-04T11:53:06.811Z,15.10
2023-02-04T11:55:38.383Z,13.77
2023-02-04T11:58:08.689Z,16.93
2023-02-04T12:00:38.271Z,13.77
2023-02-04T12:03:20.945Z,10.37
2023-02-04T12:05:50.602Z,8.67
2023-02-04T12:08:30.940Z,16.33
2023-02-04T12:11:05.433Z,15.73
2023-02-04T12:13:33.661Z,16.53
2023-02-04T12:16:03.518Z,15.53
2023-02-04T12:18:33.126Z,13.50
2023-02-04T12:21:04.722Z,13.93
2023-02-04T12:23:33.119Z,14.00
2023-02-04T12:26:01.541Z,9.20
2023-02-04T12:28:30.625Z,11.40
2023-02-04T12:30:58.638Z,21.50
2023-02-04T12:33:26.616Z,15.47
2023-02-04T12:35:54.599Z,16.53
2023-02-04T12:38:23.929Z,10.00
2023-02-04T12:40:51.798Z,14.63
2023-02-04T12:43:19.698Z,17.13
2023-02-04T12:45:49.845Z,11.93
2023-02-04T12:48:19.136Z,12.03
2023-02-04T12:50:47.019Z,13.80
2023-02-04T12:53:14.930Z,8.40
2023-02-04T12:55:44.194Z,12.53
2023-02-04T12:58:12.005Z,10.43
2023-02-04T13:00:39.975Z,11.47
2023-02-04T13:03:07.817Z,11.50
2023-02-04T13:05:36.039Z,12.37
2023-02-04T13:08:03.949Z,11.07
2023-02-04T13:10:31.915Z,14.10
2023-02-04T13:13:04.020Z,15.60
2023-02-04T13:15:32.614Z,8.43
2023-02-04T13:18:00.655Z,12.67
2023-02-04T13:20:28.555Z,11.50
2023-02-04T13:22:56.460Z,7.67
2023-02-04T13:25:24.373Z,12.33
2023-02-04T13:27:52.313Z,14.23
2023-02-04T13:30:21.587Z,13.27
2023-02-04T13:32:49.569Z,12.93
2023-02-04T13:35:17.623Z,13.80
2023-02-04T13:37:45.496Z,14.30
2023-02-04T13:40:13.734Z,5.87
2023-02-04T13:42:41.660Z,11.83
2023-02-04T13:45:12.552Z,10.57
2023-02-04T13:47:41.786Z,10.97
2023-02-04T13:50:10.325Z,7.90
2023-02-04T13:52:38.231Z,7.03
2023-02-04T13:55:06.904Z,10.27
2023-02-04T13:57:35.161Z,8.73
2023-02-04T14:00:03.068Z,13.20
2023-02-04T14:02:42.800Z,8.37
2023-02-04T14:05:10.726Z,10.43
2023-02-04T14:07:38.572Z,7.93
2023-02-04T14:10:07.449Z,10.53
2023-02-04T14:12:35.309Z,10.90
2023-02-04T14:15:03.194Z,7.23
2023-02-04T14:17:31.104Z,7.60
2023-02-04T14:20:00.377Z,4.73
2023-02-04T14:22:28.489Z,9.53
2023-02-04T14:24:56.350Z,8.63
2023-02-04T14:27:24.367Z,12.67
2023-02-04T14:29:52.193Z,10.90
2023-02-04T14:32:20.964Z,8.33
2023-02-04T14:34:48.837Z,7.57
2023-02-04T14:37:18.159Z,5.63
2023-02-04T14:39:46.139Z,12.37
2023-02-04T14:42:13.987Z,5.57
2023-02-04T14:44:41.874Z,16.33
2023-02-04T14:47:09.691Z,16.73
2023-02-04T14:49:38.050Z,8.73
2023-02-04T14:52:06.419Z,12.20
2023-02-04T14:54:35.675Z,13.17
2023-02-04T14:57:04.696Z,8.20
2023-02-04T14:59:33.082Z,12.07
2023-02-04T15:02:00.945Z,15.70
2023-02-04T15:04:29.417Z,17.50
2023-02-04T15:06:57.963Z,9.90
2023-02-04T15:09:26.241Z,8.20
2023-02-04T15:11:55.678Z,16.77
2023-02-04T15:14:23.563Z,11.83
2023-02-04T15:16:51.526Z,13.70
2023-02-04T15:19:20.685Z,11.80
2023-02-04T15:21:48.599Z,16.07
2023-02-04T15:24:16.539Z,14.77
2023-02-04T15:26:44.512Z,10.70
2023-02-04T15:29:13.708Z,23.60
2023-02-04T15:31:41.755Z,10.10
2023-02-04T15:34:09.669Z,22.07
2023-02-04T15:36:37.540Z,16.93
2023-02-04T15:39:05.630Z,12.47
2023-02-04T15:41:33.521Z,13.07
2023-02-04T15:44:01.391Z,10.87
2023-02-04T15:46:32.082Z,12.03
2023-02-04T15:49:00.109Z,15.37
2023-02-04T15:51:27.993Z,14.43
2023-02-04T15:53:55.876Z,9.93
2023-02-04T15:56:23.916Z,18.70
2023-02-04T15:58:51.800Z,15.00
2023-02-04T16:01:20.023Z,14.77
2023-02-04T16:03:50.812Z,13.80
2023-02-04T16:06:18.697Z,8.03
2023-02-04T16:08:46.584Z,9.80
2023-02-04T16:11:14.439Z,15.93
2023-02-04T16:13:42.328Z,16.17
2023-02-04T16:16:10.336Z,13.77
2023-02-04T16:18:38.195Z,7.83
2023-02-04T16:21:07.593Z,11.63
2023-02-04T16:23:35.452Z,9.70
2023-02-04T16:26:03.363Z,13.07
2023-02-04T16:28:31.204Z,13.97
2023-02-04T16:30:59.117Z,10.00
2023-02-04T16:33:27.968Z,12.23
2023-02-04T16:36:01.868Z,17.60
2023-02-04T16:38:32.007Z,15.67
2023-02-04T16:41:00.176Z,12.57
2023-02-04T16:43:28.054Z,13.53
2023-02-04T16:45:56.097Z,16.73
2023-02-04T16:48:24.406Z,12.03
2023-02-04T16:50:52.324Z,13.37
2023-02-04T16:53:20.229Z,16.37
2023-02-04T16:55:49.847Z,11.70
2023-02-04T16:58:18.751Z,10.73
2023-02-04T17:00:46.861Z,17.87
2023-02-04T17:03:15.463Z,23.10
2023-02-04T17:05:43.843Z,20.20
2023-02-04T17:08:13.548Z,14.70
2023-02-04T17:10:59.355Z,12.73
2023-02-04T17:13:29.071Z,13.13
2023-02-04T17:16:00.870Z,10.60
2023-02-04T17:18:29.675Z,15.80
2023-02-04T17:20:58.199Z,23.50
2023-02-04T17:23:26.863Z,11.70
2023-02-04T17:25:54.798Z,13.30
2023-02-04T17:28:24.231Z,11.70
2023-02-04T17:30:53.883Z,11.67
2023-02-04T17:33:22.354Z,14.50
2023-02-04T17:35:50.424Z,20.57
2023-02-04T17:38:18.351Z,16.83
2023-02-04T17:40:46.619Z,14.40
2023-02-04T17:43:14.555Z,24.00
2023-02-04T17:45:42.529Z,19.77
2023-02-04T17:48:11.725Z,26.03
2023-02-04T17:50:40.455Z,28.87
2023-02-04T17:53:09.453Z,24.07
2023-02-04T17:55:39.377Z,24.17
2023-02-04T17:58:14.887Z,20.43
2023-02-04T18:00:44.471Z,21.30
2023-02-04T18:03:15.916Z,24.43
2023-02-04T18:05:46.563Z,15.50
2023-02-04T18:08:16.962Z,17.83
2023-02-04T18:10:46.533Z,19.03
2023-02-04T18:13:17.309Z,16.53
2023-02-04T18:15:47.977Z,20.93
2023-02-04T18:18:25.609Z,22.10
2023-02-04T18:20:59.881Z,15.10
2023-02-04T18:23:30.477Z,27.17
2023-02-04T18:26:05.995Z,25.13
2023-02-04T18:28:35.595Z,12.50
2023-02-04T18:31:04.689Z,18.87
2023-02-04T18:33:34.879Z,14.60
2023-02-04T18:36:03.406Z,11.80
2023-02-04T18:38:35.913Z,17.97
2023-02-04T18:41:22.900Z,16.43
2023-02-04T18:43:52.873Z,13.20
2023-02-04T18:46:25.289Z,16.37
2023-02-04T18:49:08.721Z,17.70
2023-02-04T18:51:40.287Z,19.77
2023-02-04T18:54:28.122Z,18.43
2023-02-04T18:57:03.314Z,19.37
2023-02-04T18:59:31.697Z,22.93
2023-02-04T19:01:59.897Z,25.47
2023-02-04T19:04:29.196Z,23.87
2023-02-04T19:06:57.430Z,25.50
2023-02-04T19:09:27.356Z,18.90
2023-02-04T19:11:56.535Z,30.03
2023-02-04T19:14:28.902Z,21.83
2023-02-04T19:17:08.999Z,28.47
2023-02-04T19:19:40.061Z,34.27
2023-02-04T19:22:31.934Z,30.30
2023-02-04T19:25:21.128Z,36.70
2023-02-04T19:27:53.083Z,18.87
2023-02-04T19:30:44.577Z,27.30
2023-02-04T19:33:17.794Z,28.73
2023-02-04T19:35:48.963Z,27.37
2023-02-04T19:38:38.228Z,26.77
2023-02-04T19:41:25.519Z,25.80
2023-02-04T19:43:58.031Z,25.57
2023-02-04T19:46:27.737Z,32.20
2023-02-04T19:48:57.732Z,30.07
2023-02-04T19:51:29.723Z,34.27
2023-02-04T19:54:03.642Z,32.27
2023-02-04T19:56:35.917Z,29.20
2023-02-04T19:59:24.334Z,26.13
2023-02-04T20:01:59.600Z,20.73
2023-02-04T20:04:36.281Z,30.40
2023-02-04T20:07:15.696Z,32.70
2023-02-04T20:09:43.524Z,30.23
2023-02-04T20:12:14.892Z,37.80
2023-02-04T20:14:49.260Z,32.73
2023-02-04T20:17:38.708Z,32.57
2023-02-04T20:20:26.080Z,27.20
2023-02-04T20:22:57.048Z,32.40
2023-02-04T20:25:46.963Z,40.33
2023-02-04T20:28:38.371Z,34.17
2023-02-04T20:31:23.900Z,39.23
2023-02-04T20:33:53.283Z,43.57
2023-02-04T20:36:43.186Z,55.63
2023-02-04T20:39:41.129Z,49.73
2023-02-04T20:42:25.192Z,39.33
2023-02-04T20:44:53.180Z,28.43
2023-02-04T20:47:23.009Z,34.40
2023-02-04T20:49:56.506Z,32.50
2023-02-04T20:53:01.848Z,36.17
2023-02-04T20:55:33.220Z,25.73
2023-02-04T20:58:15.364Z,31.67
2023-02-04T21:00:44.178Z,28.37
2023-02-04T21:03:25.474Z,27.43
2023-02-04T21:05:54.413Z,27.87
2023-02-04T21:08:37.288Z,46.50
2023-02-04T21:11:07.088Z,36.23
2023-02-04T21:13:35.470Z,34.30
2023-02-04T21:16:03.799Z,29.30
2023-02-04T21:18:34.473Z,28.27
2023-02-04T21:21:03.294Z,29.87
2023-02-04T21:23:31.558Z,36.17
2023-02-04T21:25:59.482Z,29.37
2023-02-04T21:28:28.860Z,26.47
2023-02-04T21:30:56.745Z,41.83
2023-02-04T21:33:24.708Z,52.37
2023-02-04T21:35:52.554Z,54.83
2023-02-04T21:38:20.606Z,46.23
2023-02-04T21:40:48.497Z,39.40
2023-02-04T21:43:16.412Z,33.97
2023-02-04T21:45:45.690Z,34.07
2023-02-04T21:48:14.789Z,39.03
2023-02-04T21:50:42.656Z,43.23
2023-02-04T21:53:10.923Z,40.27
2023-02-04T21:55:39.038Z,36.63
2023-02-04T21:58:07.347Z,27.40
2023-02-04T22:00:35.816Z,26.10
2023-02-04T22:03:06.156Z,32.33
2023-02-04T22:05:34.446Z,29.20
2023-02-04T22:08:02.515Z,33.53
2023-02-04T22:10:30.671Z,33.03
2023-02-04T22:12:58.630Z,27.77
2023-02-04T22:15:28.082Z,31.57
2023-02-04T22:17:56.460Z,29.00
2023-02-04T22:20:26.667Z,30.93
2023-02-04T22:22:54.790Z,25.57
2023-02-04T22:25:22.988Z,25.37
2023-02-04T22:27:50.920Z,26.23
2023-02-04T22:30:19.931Z,26.50
2023-02-04T22:32:47.902Z,27.90
2023-02-04T22:35:16.330Z,28.53
2023-02-04T22:37:45.571Z,26.57
2023-02-04T22:40:14.183Z,35.33
2023-02-04T22:42:42.196Z,23.07
2023-02-04T22:45:11.332Z,22.67
2023-02-04T22:47:39.761Z,21.53
2023-02-04T22:50:09.582Z,31.53
2023-02-04T22:52:37.690Z,30.00
2023-02-04T22:55:07.733Z,23.80
2023-02-04T22:57:35.630Z,29.67
2023-02-04T23:00:03.543Z,29.37
2023-02-04T23:02:31.519Z,27.13
2023-02-04T23:04:59.440Z,24.87
2023-02-04T23:07:27.826Z,23.30
2023-02-04T23:09:55.714Z,24.07
2023-02-04T23:12:24.995Z,26.00
2023-02-04T23:14:52.895Z,23.97
2023-02-04T23:17:20.807Z,26.73
2023-02-04T23:19:48.681Z,27.57
2023-02-04T23:22:18.006Z,25.53
2023-02-04T23:24:46.153Z,23.57
2023-02-04T23:27:14.072Z,15.13
2023-02-04T23:29:43.593Z,19.73
2023-02-04T23:32:11.461Z,22.83
2023-02-04T23:34:39.344Z,25.43
2023-02-04T23:37:07.191Z,26.33
2023-02-04T23:39:35.097Z,22.47
2023-02-04T23:42:03.129Z,19.40
2023-02-04T23:44:31.093Z,26.57
2023-02-04T23:47:00.324Z,24.70
2023-02-04T23:49:28.167Z,20.67
2023-02-04T23:51:56.010Z,28.90
2023-02-04T23:54:24.623Z,36.63
2023-02-04T23:56:53.353Z,43.13
2023-02-04T23:59:21.208Z,35.57
